Mauston, WI (53948)

03:35 AM CDT die 28o September, anno 2016 (GMT -0500)
Juneau County Weather | | Change Station
Active Advisory: Flood Warning

Elev 873 ft 43.80 °N, 90.07 °W | Updated 18 seconds ago

Mostly Cloudy
Plerumque Nubila
49.0 °F
Feels Like 49 °F
N
2.8
Ventus Variabilis Ventus from Magis Aquilo quam Zephyrus
Gusts 7.2 mph

Hodie
High -- | Low -- °F
--% Chance of Precip.
Yesterday
High -- | Low -- °F
Precip. -- in
Pressio 29.84 in
Visibilitas 10.0 milia passuum
Clouds Plerumque Nubila 1000 ft
Frigus Venti 49 °F
Frigus in quo Ros apparet 48 °F
Umor 98%
Rainfall 0.00 in
Snow Depth Not available.
6:55 AM 6:45 PM
Waning Crescent, 7% visible
METAR KVOK 280758Z AUTO 31007KT 10SM BKN010 09/09 A2982 RMK AO2 SLP104 T00920085
Pressio 29.84 in
Visibilitas 10.0 milia passuum
Clouds Plerumque Nubila 1000 ft
Frigus Venti 49 °F
Frigus in quo Ros apparet 48 °F
Umor 98%
Rainfall 0.00 in
Snow Depth Not available.
6:55 AM 6:45 PM
Waning Crescent, 7% visible
METAR KVOK 280758Z AUTO 31007KT 10SM BKN010 09/09 A2982 RMK AO2 SLP104 T00920085

10-Day Weather Forecast

Almanac

Astronomy

Sep. 28, 2016 Rise Set
Actual Time
Civil Twilight
Nautical Twilight
Astronomical Twilight
Moon
Length Of Visible Light
Length of Day
Tomorrow will be .
, % of the Moon is Illuminated

Today's Extremes

State Highs State Lows

Community

WunderPhotos

Upload Photos

1,942,216 photos uploaded!

WunderBlog® & News

Nearby

Air Quality

  Air Quality AQ Index Pollutant
Not available.

Snow Depth

Station Depth Elevation

Earthquake Activity

City Distance Mag. Time & Date
Minimum magnitude displayed is 2.5.

Coastal Water Temperatures

Locus Calor

Stations

Nearby Weather Stations

Station Location Temp Frigus Venti Frigus in quo Ros apparet Umor Ventus Precip. Elev Renovata Type
                   

Watches & Warnings

Flood Warning
Issued: 9:32 PM CDT Sep. 27, 2016 – National Weather Service

The Flood Warning continues for
the Yellow River at Necedah.
* Until late Thursday night... or until the warning is cancelled.
* At 8:30 PM Tuesday the stage was 16.3 feet.
* Flood stage is 15.0 feet.
* Minor flooding is occurring.
* Forecast... the river will continue to fall... dropping below flood
stage Thursday.


Lat... Lon 4415 9009 4415 9014 4395 9006 4396 9003


Hollan